James L. Oberstar — WDC6154 — position and weather

sailwx.info

Track history (hours):
 
Tides and Currents Weather Stations Pressure Air Temp Water Temp Dewpoint Dewpoint Depression Visibility Wind Speed Wind Dir Waves Ship Positions

James L. Oberstar

Owner: Destin Trading Corporation, harahan, LA. More information available from US FCC via Universal Licensing System and Coast Guard Vessel Documentation Center.

Last reported at 2015-Aug-01 03:25 UTC. Time now 2015-Aug-03 10:36 UTC.
Position N 29°36' W 090°58'.

Length 26 m.

Type: Towing. MMSI: 367052120.

Date/timePositionNaut miles runAvg speedWind from/ knotsBaromVisibWave heightAir tempDewpointWater temp
2015-Aug-01 03:25N 29°36' W 090°58'6 5.0
2015-Aug-01 02:11N 29°32' W 090°52'3 5.2
2015-Aug-01 01:33N 29°32' W 090°48'4 4.2
2015-Aug-01 00:34N 29°34' W 090°44'3 2.6
2015-Jul-31 23:33N 29°36' W 090°43'2 2.4
2015-Jul-31 22:34N 29°36' W 090°40'4 4.0
2015-Jul-31 21:33N 29°35' W 090°35'4 4.1
2015-Jul-31 20:31N 29°34' W 090°31'  
2015-Jul-27 00:26N 29°56' W 090°03'0 0.0
2015-Jul-26 23:30N 29°56' W 090°03'0 0.0
2015-Jul-26 20:23N 29°56' W 090°03'0 0.0
2015-Jul-26 18:17N 29°56' W 090°03'0 0.0
2015-Jul-26 17:32N 29°56' W 090°03'0 0.0
2015-Jul-26 16:32N 29°56' W 090°04'0 0.0
2015-Jul-26 15:30N 29°56' W 090°03'0 0.0
2015-Jul-26 14:33N 29°56' W 090°03'0 0.0
2015-Jul-26 13:33N 29°56' W 090°03'0 0.0
2015-Jul-26 12:32N 29°56' W 090°03'0 0.0
2015-Jul-26 11:25N 29°56' W 090°03'0 0.0
2015-Jul-26 10:31N 29°56' W 090°03'0 0.0
2015-Jul-26 09:28N 29°56' W 090°03'0 0.0
2015-Jul-26 08:19N 29°56' W 090°03'0 0.0
2015-Jul-26 07:30N 29°56' W 090°03'0 0.0
2015-Jul-26 06:26N 29°56' W 090°03'0 0.0
2015-Jul-26 05:30N 29°56' W 090°03'2 2.6
2015-Jul-26 04:33N 29°55' W 090°06'1 1.1
2015-Jul-26 03:33N 29°54' W 090°07'0 0.0
2015-Jul-26 02:32N 29°54' W 090°07'0 0.0
2015-Jul-26 01:33N 29°54' W 090°07'0 0.0
2015-Jul-26 00:33N 29°54' W 090°07'0 0.0
2015-Jul-25 23:31N 29°54' W 090°07'0 0.0
2015-Jul-25 22:32N 29°54' W 090°07'0 0.0
2015-Jul-25 21:31N 29°54' W 090°07'0 0.0
2015-Jul-25 06:28N 29°54' W 090°07'0 0.0
2015-Jul-25 05:31N 29°54' W 090°07'0 0.0
2015-Jul-25 04:28N 29°54' W 090°07'0 0.0
2015-Jul-25 03:33N 29°54' W 090°07'0 0.0
2015-Jul-25 02:33N 29°54' W 090°07'0 0.0
2015-Jul-25 01:32N 29°54' W 090°07'2 0.1
2015-Jul-23 19:09N 29°57' W 090°08'2 2.1
2015-Jul-23 18:03N 29°54' W 090°07'0 0.0
2015-Jul-22 19:10N 29°54' W 090°07'0 0.0
2015-Jul-22 18:17N 29°54' W 090°07'0 0.0
2015-Jul-22 17:24N 29°54' W 090°07'0 0.0
2015-Jul-22 16:31N 29°54' W 090°07'0 0.0
2015-Jul-22 15:31N 29°54' W 090°07'0 0.0
2015-Jul-22 14:32N 29°54' W 090°07'0 0.0
2015-Jul-22 13:33N 29°54' W 090°07'0 0.0
2015-Jul-22 12:33N 29°54' W 090°07'  
Track history (hours):
 
Tides and Currents Weather Stations Pressure Air Temp Water Temp Dewpoint Dewpoint Depression Visibility Wind Speed Wind Dir Waves Ship Positions

James L. Oberstar

Owner: Destin Trading Corporation, harahan, LA. More information available from US FCC via Universal Licensing System and Coast Guard Vessel Documentation Center.

Last reported at 2015-Aug-01 03:25 UTC. Time now 2015-Aug-03 10:36 UTC.
Position N 29°36' W 090°58'.

Length 26 m.

Type: Towing. MMSI: 367052120.

Date/timePositionNaut miles runAvg speedWind from/ knotsBaromVisibWave heightAir tempDewpointWater temp
2015-Aug-01 03:25N 29°36' W 090°58'6 5.0
2015-Aug-01 02:11N 29°32' W 090°52'3 5.2
2015-Aug-01 01:33N 29°32' W 090°48'4 4.2
2015-Aug-01 00:34N 29°34' W 090°44'3 2.6
2015-Jul-31 23:33N 29°36' W 090°43'2 2.4
2015-Jul-31 22:34N 29°36' W 090°40'4 4.0
2015-Jul-31 21:33N 29°35' W 090°35'4 4.1
2015-Jul-31 20:31N 29°34' W 090°31'  
2015-Jul-27 00:26N 29°56' W 090°03'0 0.0
2015-Jul-26 23:30N 29°56' W 090°03'0 0.0
2015-Jul-26 20:23N 29°56' W 090°03'0 0.0
2015-Jul-26 18:17N 29°56' W 090°03'0 0.0
2015-Jul-26 17:32N 29°56' W 090°03'0 0.0
2015-Jul-26 16:32N 29°56' W 090°04'0 0.0
2015-Jul-26 15:30N 29°56' W 090°03'0 0.0
2015-Jul-26 14:33N 29°56' W 090°03'0 0.0
2015-Jul-26 13:33N 29°56' W 090°03'0 0.0
2015-Jul-26 12:32N 29°56' W 090°03'0 0.0
2015-Jul-26 11:25N 29°56' W 090°03'0 0.0
2015-Jul-26 10:31N 29°56' W 090°03'0 0.0
2015-Jul-26 09:28N 29°56' W 090°03'0 0.0
2015-Jul-26 08:19N 29°56' W 090°03'0 0.0
2015-Jul-26 07:30N 29°56' W 090°03'0 0.0
2015-Jul-26 06:26N 29°56' W 090°03'0 0.0
2015-Jul-26 05:30N 29°56' W 090°03'2 2.6
2015-Jul-26 04:33N 29°55' W 090°06'1 1.1
2015-Jul-26 03:33N 29°54' W 090°07'0 0.0
2015-Jul-26 02:32N 29°54' W 090°07'0 0.0
2015-Jul-26 01:33N 29°54' W 090°07'0 0.0
2015-Jul-26 00:33N 29°54' W 090°07'0 0.0
2015-Jul-25 23:31N 29°54' W 090°07'0 0.0
2015-Jul-25 22:32N 29°54' W 090°07'0 0.0
2015-Jul-25 21:31N 29°54' W 090°07'0 0.0
2015-Jul-25 06:28N 29°54' W 090°07'0 0.0
2015-Jul-25 05:31N 29°54' W 090°07'0 0.0
2015-Jul-25 04:28N 29°54' W 090°07'0 0.0
2015-Jul-25 03:33N 29°54' W 090°07'0 0.0
2015-Jul-25 02:33N 29°54' W 090°07'0 0.0
2015-Jul-25 01:32N 29°54' W 090°07'2 0.1
2015-Jul-23 19:09N 29°57' W 090°08'2 2.1
2015-Jul-23 18:03N 29°54' W 090°07'0 0.0
2015-Jul-22 19:10N 29°54' W 090°07'0 0.0
2015-Jul-22 18:17N 29°54' W 090°07'0 0.0
2015-Jul-22 17:24N 29°54' W 090°07'0 0.0
2015-Jul-22 16:31N 29°54' W 090°07'0 0.0
2015-Jul-22 15:31N 29°54' W 090°07'0 0.0
2015-Jul-22 14:32N 29°54' W 090°07'0 0.0
2015-Jul-22 13:33N 29°54' W 090°07'0 0.0
2015-Jul-22 12:33N 29°54' W 090°07'  

Dump ship's entire track history